sensor_id;sensor_type;location;lat;lon;timestamp;temperature;humidity
22986;DHT22;11659;51.092;7.080;2022-07-29T00:01:59;18.90;93.80
22986;DHT22;11659;51.092;7.080;2022-07-29T00:04:26;18.80;93.70
22986;DHT22;11659;51.092;7.080;2022-07-29T00:06:52;18.80;93.70
22986;DHT22;11659;51.092;7.080;2022-07-29T00:09:18;18.90;93.80
22986;DHT22;11659;51.092;7.080;2022-07-29T00:11:44;18.80;93.70
22986;DHT22;11659;51.092;7.080;2022-07-29T00:14:11;18.80;93.70
22986;DHT22;11659;51.092;7.080;2022-07-29T00:16:37;18.80;93.80
22986;DHT22;11659;51.092;7.080;2022-07-29T00:19:03;18.80;93.80
22986;DHT22;11659;51.092;7.080;2022-07-29T00:21:29;18.80;93.90
22986;DHT22;11659;51.092;7.080;2022-07-29T00:23:55;18.90;93.90
22986;DHT22;11659;51.092;7.080;2022-07-29T00:26:21;18.80;93.90
22986;DHT22;11659;51.092;7.080;2022-07-29T00:28:48;18.70;94.00
22986;DHT22;11659;51.092;7.080;2022-07-29T00:31:15;18.80;94.00
22986;DHT22;11659;51.092;7.080;2022-07-29T00:33:41;18.70;94.10
22986;DHT22;11659;51.092;7.080;2022-07-29T00:36:07;18.80;94.20
22986;DHT22;11659;51.092;7.080;2022-07-29T00:38:33;18.70;94.20
22986;DHT22;11659;51.092;7.080;2022-07-29T00:40:59;18.70;94.20
22986;DHT22;11659;51.092;7.080;2022-07-29T00:43:25;18.70;94.20
22986;DHT22;11659;51.092;7.080;2022-07-29T00:45:51;18.70;94.30
22986;DHT22;11659;51.092;7.080;2022-07-29T00:48:18;18.70;94.30
22986;DHT22;11659;51.092;7.080;2022-07-29T00:50:44;18.70;94.30
22986;DHT22;11659;51.092;7.080;2022-07-29T00:53:12;18.60;94.40
22986;DHT22;11659;51.092;7.080;2022-07-29T00:55:38;18.60;94.30
22986;DHT22;11659;51.092;7.080;2022-07-29T00:58:04;18.60;94.40
22986;DHT22;11659;51.092;7.080;2022-07-29T01:00:31;18.60;94.40
22986;DHT22;11659;51.092;7.080;2022-07-29T01:02:57;18.60;94.40
22986;DHT22;11659;51.092;7.080;2022-07-29T01:05:26;18.60;94.70
22986;DHT22;11659;51.092;7.080;2022-07-29T01:07:54;18.60;94.40
22986;DHT22;11659;51.092;7.080;2022-07-29T01:10:21;18.60;94.40
22986;DHT22;11659;51.092;7.080;2022-07-29T01:12:50;18.60;94.40
22986;DHT22;11659;51.092;7.080;2022-07-29T01:15:16;18.60;94.70
22986;DHT22;11659;51.092;7.080;2022-07-29T01:17:45;18.60;94.40
22986;DHT22;11659;51.092;7.080;2022-07-29T01:20:15;18.50;94.40
22986;DHT22;11659;51.092;7.080;2022-07-29T01:23:01;18.50;94.50
22986;DHT22;11659;51.092;7.080;2022-07-29T01:25:48;18.60;94.50
22986;DHT22;11659;51.092;7.080;2022-07-29T01:31:22;18.50;94.60
22986;DHT22;11659;51.092;7.080;2022-07-29T01:33:57;18.50;94.60
22986;DHT22;11659;51.092;7.080;2022-07-29T01:36:27;18.50;94.60
22986;DHT22;11659;51.092;7.080;2022-07-29T01:38:59;18.50;94.60
22986;DHT22;11659;51.092;7.080;2022-07-29T01:41:26;18.50;94.60
22986;DHT22;11659;51.092;7.080;2022-07-29T01:43:59;18.50;94.60
22986;DHT22;11659;51.092;7.080;2022-07-29T01:46:36;18.40;94.60
22986;DHT22;11659;51.092;7.080;2022-07-29T01:49:08;18.40;94.60
22986;DHT22;11659;51.092;7.080;2022-07-29T01:51:40;18.40;94.60
22986;DHT22;11659;51.092;7.080;2022-07-29T01:54:12;18.40;94.60
22986;DHT22;11659;51.092;7.080;2022-07-29T01:56:42;18.40;94.50
22986;DHT22;11659;51.092;7.080;2022-07-29T01:59:10;18.40;94.50
22986;DHT22;11659;51.092;7.080;2022-07-29T02:01:39;18.40;94.50
22986;DHT22;11659;51.092;7.080;2022-07-29T02:04:08;18.40;94.50
22986;DHT22;11659;51.092;7.080;2022-07-29T02:06:37;18.40;94.50
22986;DHT22;11659;51.092;7.080;2022-07-29T02:09:04;18.40;94.60
22986;DHT22;11659;51.092;7.080;2022-07-29T02:11:33;18.40;94.60
22986;DHT22;11659;51.092;7.080;2022-07-29T02:14:00;18.40;94.60
22986;DHT22;11659;51.092;7.080;2022-07-29T02:16:29;18.40;94.60
22986;DHT22;11659;51.092;7.080;2022-07-29T02:18:59;18.40;94.60
22986;DHT22;11659;51.092;7.080;2022-07-29T02:21:26;18.40;94.50
22986;DHT22;11659;51.092;7.080;2022-07-29T02:23:54;18.40;94.60
22986;DHT22;11659;51.092;7.080;2022-07-29T02:26:23;18.40;94.60
22986;DHT22;11659;51.092;7.080;2022-07-29T02:28:52;18.40;94.60
22986;DHT22;11659;51.092;7.080;2022-07-29T02:31:22;18.40;94.60
22986;DHT22;11659;51.092;7.080;2022-07-29T02:33:50;18.40;94.50
22986;DHT22;11659;51.092;7.080;2022-07-29T02:36:21;18.40;94.50
22986;DHT22;11659;51.092;7.080;2022-07-29T02:38:48;18.30;94.50
22986;DHT22;11659;51.092;7.080;2022-07-29T02:41:21;18.40;94.40
22986;DHT22;11659;51.092;7.080;2022-07-29T02:44:00;18.40;94.30
22986;DHT22;11659;51.092;7.080;2022-07-29T02:46:31;18.40;94.20
22986;DHT22;11659;51.092;7.080;2022-07-29T02:49:01;18.40;94.10
22986;DHT22;11659;51.092;7.080;2022-07-29T02:51:40;18.40;94.10
22986;DHT22;11659;51.092;7.080;2022-07-29T02:54:07;18.40;94.00
22986;DHT22;11659;51.092;7.080;2022-07-29T02:56:35;18.40;93.90
22986;DHT22;11659;51.092;7.080;2022-07-29T02:59:06;18.40;93.90
22986;DHT22;11659;51.092;7.080;2022-07-29T03:01:33;18.40;93.90
22986;DHT22;11659;51.092;7.080;2022-07-29T03:04:03;18.40;93.90
22986;DHT22;11659;51.092;7.080;2022-07-29T03:06:30;18.40;93.80
22986;DHT22;11659;51.092;7.080;2022-07-29T03:09:00;18.40;93.80
22986;DHT22;11659;51.092;7.080;2022-07-29T03:11:26;18.40;93.80
22986;DHT22;11659;51.092;7.080;2022-07-29T03:13:54;18.30;93.70
22986;DHT22;11659;51.092;7.080;2022-07-29T03:16:20;18.40;93.60
22986;DHT22;11659;51.092;7.080;2022-07-29T03:18:47;18.40;93.40
22986;DHT22;11659;51.092;7.080;2022-07-29T03:21:13;18.40;93.30
22986;DHT22;11659;51.092;7.080;2022-07-29T03:23:43;18.40;93.20
22986;DHT22;11659;51.092;7.080;2022-07-29T03:26:12;18.40;93.20
22986;DHT22;11659;51.092;7.080;2022-07-29T03:28:38;18.50;93.30
22986;DHT22;11659;51.092;7.080;2022-07-29T03:31:04;18.50;93.40
22986;DHT22;11659;51.092;7.080;2022-07-29T03:33:30;18.40;93.40
22986;DHT22;11659;51.092;7.080;2022-07-29T03:35:56;18.40;93.50
22986;DHT22;11659;51.092;7.080;2022-07-29T03:38:25;18.50;93.70
22986;DHT22;11659;51.092;7.080;2022-07-29T03:40:55;18.40;93.80
22986;DHT22;11659;51.092;7.080;2022-07-29T03:43:26;18.40;93.90
22986;DHT22;11659;51.092;7.080;2022-07-29T03:45:54;18.40;94.00
22986;DHT22;11659;51.092;7.080;2022-07-29T03:48:23;18.40;94.10
22986;DHT22;11659;51.092;7.080;2022-07-29T03:50:51;18.40;94.20
22986;DHT22;11659;51.092;7.080;2022-07-29T03:53:17;18.30;94.30
22986;DHT22;11659;51.092;7.080;2022-07-29T03:55:46;18.30;94.50
22986;DHT22;11659;51.092;7.080;2022-07-29T03:58:14;18.30;94.60
22986;DHT22;11659;51.092;7.080;2022-07-29T04:00:42;18.20;94.60
22986;DHT22;11659;51.092;7.080;2022-07-29T04:03:09;18.20;94.70
22986;DHT22;11659;51.092;7.080;2022-07-29T04:05:36;18.10;94.80
22986;DHT22;11659;51.092;7.080;2022-07-29T04:08:02;18.10;94.80
22986;DHT22;11659;51.092;7.080;2022-07-29T04:10:28;18.10;94.90
22986;DHT22;11659;51.092;7.080;2022-07-29T04:12:54;18.00;94.90
22986;DHT22;11659;51.092;7.080;2022-07-29T04:15:20;18.00;94.90
22986;DHT22;11659;51.092;7.080;2022-07-29T04:17:48;18.00;94.90
22986;DHT22;11659;51.092;7.080;2022-07-29T04:20:14;17.90;95.00
22986;DHT22;11659;51.092;7.080;2022-07-29T04:22:40;17.90;95.00
22986;DHT22;11659;51.092;7.080;2022-07-29T04:25:07;17.90;95.00
22986;DHT22;11659;51.092;7.080;2022-07-29T04:27:33;17.90;95.00
22986;DHT22;11659;51.092;7.080;2022-07-29T04:29:59;17.90;95.10
22986;DHT22;11659;51.092;7.080;2022-07-29T04:32:25;17.90;95.10
22986;DHT22;11659;51.092;7.080;2022-07-29T04:34:53;17.80;95.00
22986;DHT22;11659;51.092;7.080;2022-07-29T04:37:19;17.80;95.00
22986;DHT22;11659;51.092;7.080;2022-07-29T04:39:45;17.80;95.00
22986;DHT22;11659;51.092;7.080;2022-07-29T04:42:11;17.80;95.10
22986;DHT22;11659;51.092;7.080;2022-07-29T04:44:37;17.80;95.10
22986;DHT22;11659;51.092;7.080;2022-07-29T04:47:03;17.80;95.10
22986;DHT22;11659;51.092;7.080;2022-07-29T04:49:29;17.80;95.10
22986;DHT22;11659;51.092;7.080;2022-07-29T04:51:56;17.80;95.10
22986;DHT22;11659;51.092;7.080;2022-07-29T04:54:23;17.80;95.20
22986;DHT22;11659;51.092;7.080;2022-07-29T04:56:49;17.70;95.20
22986;DHT22;11659;51.092;7.080;2022-07-29T04:59:15;17.70;95.30
22986;DHT22;11659;51.092;7.080;2022-07-29T05:01:41;17.70;95.30
22986;DHT22;11659;51.092;7.080;2022-07-29T05:04:07;17.70;95.40
22986;DHT22;11659;51.092;7.080;2022-07-29T05:06:33;17.70;95.40
22986;DHT22;11659;51.092;7.080;2022-07-29T05:09:00;17.70;95.50
22986;DHT22;11659;51.092;7.080;2022-07-29T05:11:26;17.70;95.50
22986;DHT22;11659;51.092;7.080;2022-07-29T05:13:52;17.70;95.50
22986;DHT22;11659;51.092;7.080;2022-07-29T05:16:18;17.70;95.50
22986;DHT22;11659;51.092;7.080;2022-07-29T05:18:44;17.60;95.50
22986;DHT22;11659;51.092;7.080;2022-07-29T05:21:10;17.70;95.60
22986;DHT22;11659;51.092;7.080;2022-07-29T05:23:37;17.80;95.60
22986;DHT22;11659;51.092;7.080;2022-07-29T05:26:04;17.80;95.70
22986;DHT22;11659;51.092;7.080;2022-07-29T05:28:33;17.80;95.70
22986;DHT22;11659;51.092;7.080;2022-07-29T05:30:59;17.80;95.80
22986;DHT22;11659;51.092;7.080;2022-07-29T05:33:25;17.80;95.80
22986;DHT22;11659;51.092;7.080;2022-07-29T05:35:51;17.80;95.70
22986;DHT22;11659;51.092;7.080;2022-07-29T05:38:17;17.80;95.80
22986;DHT22;11659;51.092;7.080;2022-07-29T05:40:43;17.90;95.80
22986;DHT22;11659;51.092;7.080;2022-07-29T05:43:10;17.90;95.80
22986;DHT22;11659;51.092;7.080;2022-07-29T05:45:38;17.90;95.80
22986;DHT22;11659;51.092;7.080;2022-07-29T05:48:04;17.90;95.90
22986;DHT22;11659;51.092;7.080;2022-07-29T05:50:30;17.90;95.90
22986;DHT22;11659;51.092;7.080;2022-07-29T05:52:56;18.00;95.90
22986;DHT22;11659;51.092;7.080;2022-07-29T05:55:22;18.00;95.90
22986;DHT22;11659;51.092;7.080;2022-07-29T05:57:48;18.00;95.90
22986;DHT22;11659;51.092;7.080;2022-07-29T06:00:16;18.00;96.00
22986;DHT22;11659;51.092;7.080;2022-07-29T06:02:42;18.10;96.10
22986;DHT22;11659;51.092;7.080;2022-07-29T06:05:08;18.10;96.50
22986;DHT22;11659;51.092;7.080;2022-07-29T06:07:34;18.10;96.30
22986;DHT22;11659;51.092;7.080;2022-07-29T06:10:00;18.10;96.50
22986;DHT22;11659;51.092;7.080;2022-07-29T06:12:26;18.10;96.60
22986;DHT22;11659;51.092;7.080;2022-07-29T06:14:52;18.20;96.70
22986;DHT22;11659;51.092;7.080;2022-07-29T06:17:19;18.20;96.70
22986;DHT22;11659;51.092;7.080;2022-07-29T06:19:46;18.20;96.80
22986;DHT22;11659;51.092;7.080;2022-07-29T06:22:12;18.30;96.70
22986;DHT22;11659;51.092;7.080;2022-07-29T06:24:37;18.30;96.70
22986;DHT22;11659;51.092;7.080;2022-07-29T06:27:07;18.40;96.70
22986;DHT22;11659;51.092;7.080;2022-07-29T06:29:33;18.40;96.70
22986;DHT22;11659;51.092;7.080;2022-07-29T06:31:58;18.50;96.70
22986;DHT22;11659;51.092;7.080;2022-07-29T06:34:26;18.60;96.70
22986;DHT22;11659;51.092;7.080;2022-07-29T06:36:52;18.60;96.60
22986;DHT22;11659;51.092;7.080;2022-07-29T06:39:18;18.70;96.40
22986;DHT22;11659;51.092;7.080;2022-07-29T06:41:46;18.80;96.20
22986;DHT22;11659;51.092;7.080;2022-07-29T06:44:12;18.90;96.10
22986;DHT22;11659;51.092;7.080;2022-07-29T06:46:39;19.00;96.20
22986;DHT22;11659;51.092;7.080;2022-07-29T06:49:05;19.10;96.20
22986;DHT22;11659;51.092;7.080;2022-07-29T06:51:33;19.10;96.10
22986;DHT22;11659;51.092;7.080;2022-07-29T06:53:59;19.20;96.00
22986;DHT22;11659;51.092;7.080;2022-07-29T06:56:26;19.20;95.90
22986;DHT22;11659;51.092;7.080;2022-07-29T06:58:52;19.30;95.80
22986;DHT22;11659;51.092;7.080;2022-07-29T07:01:18;19.40;95.70
22986;DHT22;11659;51.092;7.080;2022-07-29T07:03:45;19.40;95.60
22986;DHT22;11659;51.092;7.080;2022-07-29T07:06:11;19.40;95.50
22986;DHT22;11659;51.092;7.080;2022-07-29T07:08:38;19.40;95.40
22986;DHT22;11659;51.092;7.080;2022-07-29T07:11:04;19.50;95.40
22986;DHT22;11659;51.092;7.080;2022-07-29T07:13:31;19.50;95.40
22986;DHT22;11659;51.092;7.080;2022-07-29T07:16:00;19.50;95.40
22986;DHT22;11659;51.092;7.080;2022-07-29T07:18:26;19.60;95.50
22986;DHT22;11659;51.092;7.080;2022-07-29T07:20:53;19.60;95.70
22986;DHT22;11659;51.092;7.080;2022-07-29T07:23:19;19.60;95.90
22986;DHT22;11659;51.092;7.080;2022-07-29T07:25:46;19.60;96.00
22986;DHT22;11659;51.092;7.080;2022-07-29T07:28:12;19.50;96.30
22986;DHT22;11659;51.092;7.080;2022-07-29T07:30:39;19.60;96.50
22986;DHT22;11659;51.092;7.080;2022-07-29T07:33:05;19.50;96.60
22986;DHT22;11659;51.092;7.080;2022-07-29T07:35:31;19.50;96.60
22986;DHT22;11659;51.092;7.080;2022-07-29T07:37:57;19.50;96.70
22986;DHT22;11659;51.092;7.080;2022-07-29T07:40:24;19.60;96.80
22986;DHT22;11659;51.092;7.080;2022-07-29T07:42:51;19.50;96.80
22986;DHT22;11659;51.092;7.080;2022-07-29T07:45:17;19.50;96.90
22986;DHT22;11659;51.092;7.080;2022-07-29T07:47:43;19.60;97.00
22986;DHT22;11659;51.092;7.080;2022-07-29T07:50:11;19.60;97.10
22986;DHT22;11659;51.092;7.080;2022-07-29T07:52:46;19.60;97.20
22986;DHT22;11659;51.092;7.080;2022-07-29T07:55:12;19.60;97.30
22986;DHT22;11659;51.092;7.080;2022-07-29T07:57:38;19.60;97.30
22986;DHT22;11659;51.092;7.080;2022-07-29T08:00:07;19.60;97.30
22986;DHT22;11659;51.092;7.080;2022-07-29T08:02:38;19.70;97.40
22986;DHT22;11659;51.092;7.080;2022-07-29T08:05:05;19.70;97.30
22986;DHT22;11659;51.092;7.080;2022-07-29T08:07:32;19.80;97.30
22986;DHT22;11659;51.092;7.080;2022-07-29T08:09:58;19.80;97.20
22986;DHT22;11659;51.092;7.080;2022-07-29T08:12:24;19.90;97.20
22986;DHT22;11659;51.092;7.080;2022-07-29T08:14:51;20.00;97.20
22986;DHT22;11659;51.092;7.080;2022-07-29T08:17:18;19.90;97.10
22986;DHT22;11659;51.092;7.080;2022-07-29T08:19:44;19.90;97.20
22986;DHT22;11659;51.092;7.080;2022-07-29T08:22:10;19.90;97.20
22986;DHT22;11659;51.092;7.080;2022-07-29T08:24:36;20.00;97.40
22986;DHT22;11659;51.092;7.080;2022-07-29T08:27:22;20.00;97.40
22986;DHT22;11659;51.092;7.080;2022-07-29T08:29:48;20.00;97.50
22986;DHT22;11659;51.092;7.080;2022-07-29T08:32:14;20.00;97.60
22986;DHT22;11659;51.092;7.080;2022-07-29T08:34:42;20.10;97.60
22986;DHT22;11659;51.092;7.080;2022-07-29T08:37:09;20.10;97.60
22986;DHT22;11659;51.092;7.080;2022-07-29T08:39:36;20.10;97.60
22986;DHT22;11659;51.092;7.080;2022-07-29T08:42:02;20.00;97.70
22986;DHT22;11659;51.092;7.080;2022-07-29T08:44:28;20.00;97.90
22986;DHT22;11659;51.092;7.080;2022-07-29T08:46:54;20.00;98.20
22986;DHT22;11659;51.092;7.080;2022-07-29T08:49:21;20.00;98.40
22986;DHT22;11659;51.092;7.080;2022-07-29T08:51:48;20.00;98.60
22986;DHT22;11659;51.092;7.080;2022-07-29T08:54:17;19.90;98.80
22986;DHT22;11659;51.092;7.080;2022-07-29T08:56:45;19.90;98.90
22986;DHT22;11659;51.092;7.080;2022-07-29T08:59:14;19.80;99.00
22986;DHT22;11659;51.092;7.080;2022-07-29T09:01:40;19.80;99.20
22986;DHT22;11659;51.092;7.080;2022-07-29T09:04:11;19.70;99.40
22986;DHT22;11659;51.092;7.080;2022-07-29T09:06:42;19.70;99.60
22986;DHT22;11659;51.092;7.080;2022-07-29T09:09:09;19.70;99.80
22986;DHT22;11659;51.092;7.080;2022-07-29T09:11:36;19.70;99.90
22986;DHT22;11659;51.092;7.080;2022-07-29T09:14:02;19.70;99.90
22986;DHT22;11659;51.092;7.080;2022-07-29T09:16:44;19.70;99.90
22986;DHT22;11659;51.092;7.080;2022-07-29T09:19:19;19.70;99.90
22986;DHT22;11659;51.092;7.080;2022-07-29T09:21:46;19.70;99.90
22986;DHT22;11659;51.092;7.080;2022-07-29T09:24:28;19.70;99.90
22986;DHT22;11659;51.092;7.080;2022-07-29T09:27:01;19.80;99.90
22986;DHT22;11659;51.092;7.080;2022-07-29T09:29:27;19.90;99.90
22986;DHT22;11659;51.092;7.080;2022-07-29T09:31:54;20.00;99.90
22986;DHT22;11659;51.092;7.080;2022-07-29T09:34:24;20.10;99.90
22986;DHT22;11659;51.092;7.080;2022-07-29T09:36:51;20.20;99.90
22986;DHT22;11659;51.092;7.080;2022-07-29T09:39:28;20.40;99.90
22986;DHT22;11659;51.092;7.080;2022-07-29T09:41:56;20.50;99.90
22986;DHT22;11659;51.092;7.080;2022-07-29T09:44:23;20.60;99.90
22986;DHT22;11659;51.092;7.080;2022-07-29T09:46:54;20.70;99.80
22986;DHT22;11659;51.092;7.080;2022-07-29T09:49:20;20.80;99.50
22986;DHT22;11659;51.092;7.080;2022-07-29T09:51:46;20.90;99.60
22986;DHT22;11659;51.092;7.080;2022-07-29T09:54:22;21.00;99.10
22986;DHT22;11659;51.092;7.080;2022-07-29T09:56:50;21.10;98.80
22986;DHT22;11659;51.092;7.080;2022-07-29T09:59:16;21.20;98.60
22986;DHT22;11659;51.092;7.080;2022-07-29T10:01:42;21.20;98.20
22986;DHT22;11659;51.092;7.080;2022-07-29T10:04:09;21.30;97.60
22986;DHT22;11659;51.092;7.080;2022-07-29T10:06:35;21.40;97.30
22986;DHT22;11659;51.092;7.080;2022-07-29T10:09:07;21.40;97.30
22986;DHT22;11659;51.092;7.080;2022-07-29T10:11:34;21.40;97.20
22986;DHT22;11659;51.092;7.080;2022-07-29T10:14:02;21.50;97.40
22986;DHT22;11659;51.092;7.080;2022-07-29T10:16:29;21.40;97.70
22986;DHT22;11659;51.092;7.080;2022-07-29T10:18:58;21.50;97.90
22986;DHT22;11659;51.092;7.080;2022-07-29T10:21:25;21.50;97.90
22986;DHT22;11659;51.092;7.080;2022-07-29T10:23:51;21.50;97.80
22986;DHT22;11659;51.092;7.080;2022-07-29T10:26:18;21.50;97.80
22986;DHT22;11659;51.092;7.080;2022-07-29T10:28:44;21.50;97.80
22986;DHT22;11659;51.092;7.080;2022-07-29T10:31:22;21.40;97.70
22986;DHT22;11659;51.092;7.080;2022-07-29T10:33:57;21.40;97.60
22986;DHT22;11659;51.092;7.080;2022-07-29T10:36:44;21.40;97.70
22986;DHT22;11659;51.092;7.080;2022-07-29T10:39:19;21.40;97.70
22986;DHT22;11659;51.092;7.080;2022-07-29T10:42:02;21.40;97.80
22986;DHT22;11659;51.092;7.080;2022-07-29T10:44:30;21.30;97.90
22986;DHT22;11659;51.092;7.080;2022-07-29T10:46:58;21.30;97.90
22986;DHT22;11659;51.092;7.080;2022-07-29T10:49:25;21.30;98.10
22986;DHT22;11659;51.092;7.080;2022-07-29T10:52:06;21.20;98.10
22986;DHT22;11659;51.092;7.080;2022-07-29T10:54:46;21.20;98.20
22986;DHT22;11659;51.092;7.080;2022-07-29T10:57:24;21.20;98.20
22986;DHT22;11659;51.092;7.080;2022-07-29T11:00:26;21.10;98.40
22986;DHT22;11659;51.092;7.080;2022-07-29T11:02:53;21.10;98.50
22986;DHT22;11659;51.092;7.080;2022-07-29T11:05:22;21.10;98.50
22986;DHT22;11659;51.092;7.080;2022-07-29T11:08:23;21.10;99.00
22986;DHT22;11659;51.092;7.080;2022-07-29T11:10:53;21.20;98.80
22986;DHT22;11659;51.092;7.080;2022-07-29T11:13:48;21.20;98.90
22986;DHT22;11659;51.092;7.080;2022-07-29T11:16:19;21.20;98.70
22986;DHT22;11659;51.092;7.080;2022-07-29T11:19:20;21.40;98.70
22986;DHT22;11659;51.092;7.080;2022-07-29T11:21:46;21.50;98.90
22986;DHT22;11659;51.092;7.080;2022-07-29T11:24:13;21.50;98.60
22986;DHT22;11659;51.092;7.080;2022-07-29T11:26:40;21.60;98.80
22986;DHT22;11659;51.092;7.080;2022-07-29T11:29:17;21.70;98.90
22986;DHT22;11659;51.092;7.080;2022-07-29T11:31:45;21.80;98.70
22986;DHT22;11659;51.092;7.080;2022-07-29T11:34:21;22.00;98.30
22986;DHT22;11659;51.092;7.080;2022-07-29T11:37:13;22.20;98.20
22986;DHT22;11659;51.092;7.080;2022-07-29T11:39:40;22.30;98.00
22986;DHT22;11659;51.092;7.080;2022-07-29T11:42:45;22.50;97.40
22986;DHT22;11659;51.092;7.080;2022-07-29T11:45:14;22.70;97.20
22986;DHT22;11659;51.092;7.080;2022-07-29T11:47:46;22.90;97.00
22986;DHT22;11659;51.092;7.080;2022-07-29T11:50:16;23.10;96.40
22986;DHT22;11659;51.092;7.080;2022-07-29T11:52:45;23.20;96.20
22986;DHT22;11659;51.092;7.080;2022-07-29T11:55:14;23.30;96.00
22986;DHT22;11659;51.092;7.080;2022-07-29T11:57:48;23.40;95.50
22986;DHT22;11659;51.092;7.080;2022-07-29T12:00:22;23.60;95.10
22986;DHT22;11659;51.092;7.080;2022-07-29T12:02:50;23.70;94.90
22986;DHT22;11659;51.092;7.080;2022-07-29T12:05:18;23.90;94.70
22986;DHT22;11659;51.092;7.080;2022-07-29T12:07:44;24.00;94.20
22986;DHT22;11659;51.092;7.080;2022-07-29T12:10:11;24.10;93.80
22986;DHT22;11659;51.092;7.080;2022-07-29T12:12:37;24.20;93.70
22986;DHT22;11659;51.092;7.080;2022-07-29T12:15:15;24.30;93.40
22986;DHT22;11659;51.092;7.080;2022-07-29T12:17:43;24.50;93.30
22986;DHT22;11659;51.092;7.080;2022-07-29T12:20:09;24.70;93.20
22986;DHT22;11659;51.092;7.080;2022-07-29T12:22:39;24.80;93.00
22986;DHT22;11659;51.092;7.080;2022-07-29T12:25:08;24.90;92.70
22986;DHT22;11659;51.092;7.080;2022-07-29T12:27:35;25.00;92.20
22986;DHT22;11659;51.092;7.080;2022-07-29T12:30:05;25.20;91.80
22986;DHT22;11659;51.092;7.080;2022-07-29T12:32:32;25.40;91.50
22986;DHT22;11659;51.092;7.080;2022-07-29T12:35:02;25.50;90.80
22986;DHT22;11659;51.092;7.080;2022-07-29T12:37:29;25.50;90.10
22986;DHT22;11659;51.092;7.080;2022-07-29T12:39:56;25.60;89.70
22986;DHT22;11659;51.092;7.080;2022-07-29T12:42:22;25.70;89.60
22986;DHT22;11659;51.092;7.080;2022-07-29T12:44:49;25.80;88.60
22986;DHT22;11659;51.092;7.080;2022-07-29T12:47:16;25.80;87.90
22986;DHT22;11659;51.092;7.080;2022-07-29T12:49:43;25.90;88.60
22986;DHT22;11659;51.092;7.080;2022-07-29T12:52:27;26.00;88.40
22986;DHT22;11659;51.092;7.080;2022-07-29T12:54:53;26.00;88.00
22986;DHT22;11659;51.092;7.080;2022-07-29T12:57:20;25.90;88.20
22986;DHT22;11659;51.092;7.080;2022-07-29T12:59:59;25.80;88.50
22986;DHT22;11659;51.092;7.080;2022-07-29T13:02:25;25.70;88.60
22986;DHT22;11659;51.092;7.080;2022-07-29T13:04:55;25.60;88.40
22986;DHT22;11659;51.092;7.080;2022-07-29T13:07:24;25.50;88.70
22986;DHT22;11659;51.092;7.080;2022-07-29T13:09:51;25.50;89.10
22986;DHT22;11659;51.092;7.080;2022-07-29T13:12:17;25.50;89.40
22986;DHT22;11659;51.092;7.080;2022-07-29T13:14:45;25.50;89.70
22986;DHT22;11659;51.092;7.080;2022-07-29T13:17:13;25.40;90.10
22986;DHT22;11659;51.092;7.080;2022-07-29T13:19:43;25.40;90.10
22986;DHT22;11659;51.092;7.080;2022-07-29T13:22:09;25.30;90.10
22986;DHT22;11659;51.092;7.080;2022-07-29T13:24:46;25.20;90.20
22986;DHT22;11659;51.092;7.080;2022-07-29T13:27:14;25.20;90.30
22986;DHT22;11659;51.092;7.080;2022-07-29T13:29:39;25.20;90.40
22986;DHT22;11659;51.092;7.080;2022-07-29T13:32:07;25.20;90.40
22986;DHT22;11659;51.092;7.080;2022-07-29T13:34:33;25.20;90.10
22986;DHT22;11659;51.092;7.080;2022-07-29T13:36:59;25.20;90.00
22986;DHT22;11659;51.092;7.080;2022-07-29T13:39:25;25.20;90.10
22986;DHT22;11659;51.092;7.080;2022-07-29T13:41:51;25.20;89.30
22986;DHT22;11659;51.092;7.080;2022-07-29T13:44:17;25.20;89.10
22986;DHT22;11659;51.092;7.080;2022-07-29T13:46:43;25.20;88.10
22986;DHT22;11659;51.092;7.080;2022-07-29T13:49:10;25.20;87.50
22986;DHT22;11659;51.092;7.080;2022-07-29T13:51:37;25.20;87.70
22986;DHT22;11659;51.092;7.080;2022-07-29T13:54:02;25.20;87.80
22986;DHT22;11659;51.092;7.080;2022-07-29T13:56:28;25.30;87.80
22986;DHT22;11659;51.092;7.080;2022-07-29T13:58:55;25.30;87.40
22986;DHT22;11659;51.092;7.080;2022-07-29T14:01:21;25.30;86.90
22986;DHT22;11659;51.092;7.080;2022-07-29T14:03:47;25.20;87.20
22986;DHT22;11659;51.092;7.080;2022-07-29T14:06:14;25.20;87.60
22986;DHT22;11659;51.092;7.080;2022-07-29T14:08:40;25.20;88.20
22986;DHT22;11659;51.092;7.080;2022-07-29T14:11:06;25.20;88.60
22986;DHT22;11659;51.092;7.080;2022-07-29T14:13:32;25.20;89.10
22986;DHT22;11659;51.092;7.080;2022-07-29T14:15:58;25.20;89.00
22986;DHT22;11659;51.092;7.080;2022-07-29T14:18:24;25.20;88.90
22986;DHT22;11659;51.092;7.080;2022-07-29T14:20:50;25.20;89.10
22986;DHT22;11659;51.092;7.080;2022-07-29T14:23:18;25.20;89.30
22986;DHT22;11659;51.092;7.080;2022-07-29T14:25:44;25.20;89.60
22986;DHT22;11659;51.092;7.080;2022-07-29T14:28:10;25.20;89.80
22986;DHT22;11659;51.092;7.080;2022-07-29T14:30:38;25.20;89.70
22986;DHT22;11659;51.092;7.080;2022-07-29T14:33:04;25.20;90.20
22986;DHT22;11659;51.092;7.080;2022-07-29T14:35:30;25.20;89.90
22986;DHT22;11659;51.092;7.080;2022-07-29T14:37:56;25.20;89.70
22986;DHT22;11659;51.092;7.080;2022-07-29T14:40:24;25.30;88.70
22986;DHT22;11659;51.092;7.080;2022-07-29T14:42:51;25.30;88.20
22986;DHT22;11659;51.092;7.080;2022-07-29T14:45:17;25.20;87.90
22986;DHT22;11659;51.092;7.080;2022-07-29T14:47:43;25.30;87.80
22986;DHT22;11659;51.092;7.080;2022-07-29T14:50:09;25.30;88.00
22986;DHT22;11659;51.092;7.080;2022-07-29T14:52:36;25.40;87.70
22986;DHT22;11659;51.092;7.080;2022-07-29T14:55:03;25.40;87.50
22986;DHT22;11659;51.092;7.080;2022-07-29T14:57:31;25.40;87.20
22986;DHT22;11659;51.092;7.080;2022-07-29T14:59:57;25.40;86.80
22986;DHT22;11659;51.092;7.080;2022-07-29T15:02:23;25.40;86.70
22986;DHT22;11659;51.092;7.080;2022-07-29T15:04:49;25.40;86.80
22986;DHT22;11659;51.092;7.080;2022-07-29T15:07:15;25.40;86.90
22986;DHT22;11659;51.092;7.080;2022-07-29T15:09:42;25.40;86.80
22986;DHT22;11659;51.092;7.080;2022-07-29T15:12:08;25.40;86.40
22986;DHT22;11659;51.092;7.080;2022-07-29T15:14:37;25.40;86.10
22986;DHT22;11659;51.092;7.080;2022-07-29T15:17:03;25.40;86.10
22986;DHT22;11659;51.092;7.080;2022-07-29T15:19:29;25.40;86.80
22986;DHT22;11659;51.092;7.080;2022-07-29T15:21:55;25.40;85.90
22986;DHT22;11659;51.092;7.080;2022-07-29T15:24:21;25.50;85.90
22986;DHT22;11659;51.092;7.080;2022-07-29T15:26:47;25.50;85.90
22986;DHT22;11659;51.092;7.080;2022-07-29T15:29:13;25.60;86.00
22986;DHT22;11659;51.092;7.080;2022-07-29T15:31:41;25.60;86.00
22986;DHT22;11659;51.092;7.080;2022-07-29T15:34:06;25.70;85.90
22986;DHT22;11659;51.092;7.080;2022-07-29T15:36:33;25.80;85.90
22986;DHT22;11659;51.092;7.080;2022-07-29T15:38:59;25.80;85.70
22986;DHT22;11659;51.092;7.080;2022-07-29T15:41:25;25.70;85.70